createdAt,value
2022-07-30T00:00:50.436Z,18.77
2022-07-30T00:03:17.274Z,18.76
2022-07-30T00:05:44.125Z,18.70
2022-07-30T00:08:10.916Z,18.68
2022-07-30T00:10:37.652Z,18.74
2022-07-30T00:13:05.267Z,18.67
2022-07-30T00:15:34.166Z,18.64
2022-07-30T00:18:00.942Z,18.66
2022-07-30T00:20:28.279Z,18.64
2022-07-30T00:22:55.203Z,18.67
2022-07-30T00:25:21.933Z,18.73
2022-07-30T00:27:48.727Z,18.73
2022-07-30T00:30:16.297Z,18.81
2022-07-30T00:32:43.418Z,18.87
2022-07-30T00:35:11.202Z,18.92
2022-07-30T00:37:39.674Z,18.85
2022-07-30T00:40:09.209Z,18.94
2022-07-30T00:42:46.846Z,18.99
2022-07-30T00:45:16.109Z,19.03
2022-07-30T00:47:43.497Z,19.02
2022-07-30T00:50:12.741Z,18.67
2022-07-30T00:52:41.063Z,18.44
2022-07-30T00:55:13.448Z,18.40
2022-07-30T00:57:42.015Z,18.23
2022-07-30T01:00:15.043Z,18.02
2022-07-30T01:02:42.939Z,17.98
2022-07-30T01:05:11.387Z,17.99
2022-07-30T01:07:38.770Z,18.18
2022-07-30T01:10:08.378Z,18.19
2022-07-30T01:12:39.524Z,18.04
2022-07-30T01:15:11.349Z,18.08
2022-07-30T01:17:40.071Z,18.24
2022-07-30T01:20:13.758Z,18.25
2022-07-30T01:23:02.627Z,18.28
2022-07-30T01:25:32.157Z,18.48
2022-07-30T01:28:06.346Z,18.60
2022-07-30T01:30:41.062Z,18.45
2022-07-30T01:33:15.636Z,18.35
2022-07-30T01:35:46.352Z,18.37
2022-07-30T01:38:16.667Z,18.23
2022-07-30T01:40:46.164Z,18.06
2022-07-30T01:43:14.706Z,18.05
2022-07-30T01:45:44.316Z,18.12
2022-07-30T01:48:14.857Z,18.33
2022-07-30T01:50:51.071Z,18.50
2022-07-30T01:53:24.544Z,18.53
2022-07-30T01:55:54.509Z,18.58
2022-07-30T01:58:26.580Z,18.63
2022-07-30T02:00:58.243Z,18.31
2022-07-30T02:03:29.592Z,18.08
2022-07-30T02:06:02.460Z,17.95
2022-07-30T02:08:44.276Z,18.04
2022-07-30T02:11:16.018Z,18.05
2022-07-30T02:13:54.383Z,17.98
2022-07-30T02:16:36.196Z,18.12
2022-07-30T02:19:14.468Z,18.31
2022-07-30T02:21:50.536Z,18.43
2022-07-30T02:24:25.841Z,18.48
2022-07-30T02:27:03.475Z,18.51
2022-07-30T02:29:35.881Z,18.47
2022-07-30T02:32:09.099Z,18.51
2022-07-30T02:34:41.577Z,18.45
2022-07-30T02:37:14.466Z,18.49
2022-07-30T02:39:43.503Z,18.43
2022-07-30T02:42:15.024Z,18.46
2022-07-30T02:44:45.399Z,18.56
2022-07-30T02:47:17.172Z,18.62
2022-07-30T02:49:47.281Z,18.64
2022-07-30T02:52:17.987Z,18.66
2022-07-30T02:54:48.019Z,18.67
2022-07-30T02:57:19.394Z,18.70
2022-07-30T02:59:49.252Z,18.76
2022-07-30T03:02:18.563Z,18.80
2022-07-30T03:05:00.058Z,18.73
2022-07-30T03:07:29.655Z,18.54
2022-07-30T03:09:58.792Z,18.48
2022-07-30T03:12:31.244Z,18.58
2022-07-30T03:14:58.678Z,18.67
2022-07-30T03:17:31.495Z,18.65
2022-07-30T03:20:01.733Z,18.52
2022-07-30T03:22:33.207Z,18.36
2022-07-30T03:25:02.762Z,18.24
2022-07-30T03:27:31.023Z,18.32
2022-07-30T03:30:02.555Z,18.39
2022-07-30T03:32:31.425Z,18.44
2022-07-30T03:35:05.956Z,18.48
2022-07-30T03:37:37.741Z,18.54
2022-07-30T03:40:06.825Z,18.51
2022-07-30T03:42:35.607Z,18.54
2022-07-30T03:45:06.928Z,18.58
2022-07-30T03:47:38.656Z,18.53
2022-07-30T03:50:07.167Z,18.63
2022-07-30T03:52:37.284Z,18.70
2022-07-30T03:55:12.940Z,18.67
2022-07-30T03:57:40.031Z,18.68
2022-07-30T04:00:14.351Z,18.68
2022-07-30T04:02:46.077Z,18.54
2022-07-30T04:05:14.386Z,18.51
2022-07-30T04:07:45.318Z,18.45
2022-07-30T04:10:15.073Z,18.45
2022-07-30T04:12:42.076Z,18.41
2022-07-30T04:16:36.841Z,18.23
2022-07-30T04:18:03.878Z,18.02
2022-07-30T04:20:40.972Z,17.92
2022-07-30T04:23:10.650Z,17.83
2022-07-30T04:25:38.886Z,17.77
2022-07-30T04:28:07.144Z,17.69
2022-07-30T04:30:37.049Z,17.54
2022-07-30T04:33:05.255Z,17.54
2022-07-30T04:35:50.331Z,17.56
2022-07-30T04:38:19.924Z,17.55
2022-07-30T04:40:48.052Z,17.61
2022-07-30T04:43:16.290Z,17.61
2022-07-30T04:45:44.427Z,17.66
2022-07-30T04:48:11.512Z,17.66
2022-07-30T04:50:43.825Z,17.79
2022-07-30T04:53:11.664Z,17.76
2022-07-30T04:55:45.499Z,17.83
2022-07-30T04:58:16.492Z,17.89
2022-07-30T05:00:44.495Z,17.84
2022-07-30T05:03:14.329Z,18.01
2022-07-30T05:05:43.166Z,17.96
2022-07-30T05:08:12.257Z,17.96
2022-07-30T05:10:39.044Z,17.99
2022-07-30T05:13:12.313Z,18.11
2022-07-30T05:15:41.343Z,18.10
2022-07-30T05:18:08.719Z,18.00
2022-07-30T05:20:35.769Z,17.99
2022-07-30T05:23:03.066Z,18.06
2022-07-30T05:25:29.846Z,18.14
2022-07-30T05:27:58.112Z,18.22
2022-07-30T05:30:27.620Z,18.29
2022-07-30T05:32:54.894Z,18.33
2022-07-30T05:35:23.839Z,18.37
2022-07-30T05:37:50.608Z,18.25
2022-07-30T05:40:17.349Z,18.32
2022-07-30T05:42:44.024Z,18.40
2022-07-30T05:45:11.195Z,18.33
2022-07-30T05:47:37.952Z,18.40
2022-07-30T05:50:05.613Z,18.38
2022-07-30T05:52:33.328Z,18.37
2022-07-30T05:55:01.145Z,18.31
2022-07-30T05:57:27.893Z,18.38
2022-07-30T05:59:55.098Z,18.30
2022-07-30T06:02:24.380Z,18.27
2022-07-30T06:04:51.978Z,18.23
2022-07-30T06:07:18.743Z,18.25
2022-07-30T06:09:45.429Z,18.38
2022-07-30T06:12:13.051Z,18.42
2022-07-30T06:14:39.714Z,18.52
2022-07-30T06:17:06.569Z,18.51
2022-07-30T06:19:34.825Z,18.44
2022-07-30T06:22:06.663Z,18.59
2022-07-30T06:24:35.804Z,18.62
2022-07-30T06:27:03.103Z,18.66
2022-07-30T06:29:30.414Z,18.65
2022-07-30T06:31:57.012Z,18.62
2022-07-30T06:34:23.823Z,18.51
2022-07-30T06:36:51.090Z,18.34
2022-07-30T06:39:57.390Z,18.29
2022-07-30T06:42:04.761Z,18.31
2022-07-30T06:44:31.757Z,18.56
2022-07-30T06:47:00.983Z,18.92
2022-07-30T06:49:33.174Z,19.21
2022-07-30T06:52:00.523Z,19.27
2022-07-30T06:54:27.446Z,19.56
2022-07-30T06:56:54.375Z,19.65
2022-07-30T06:59:21.136Z,19.64
2022-07-30T07:01:48.002Z,19.80
2022-07-30T07:04:14.831Z,20.10
2022-07-30T07:06:41.623Z,20.28
2022-07-30T07:09:08.341Z,20.30
2022-07-30T07:11:35.308Z,20.41
2022-07-30T07:14:04.761Z,20.60
2022-07-30T07:16:31.995Z,20.48
2022-07-30T07:18:58.698Z,20.38
2022-07-30T07:21:25.884Z,20.45
2022-07-30T07:23:52.569Z,20.47
2022-07-30T07:26:19.251Z,20.64
2022-07-30T07:28:45.965Z,20.81
2022-07-30T07:32:02.548Z,20.66
2022-07-30T07:34:00.122Z,20.39
2022-07-30T07:36:26.907Z,20.32
2022-07-30T07:38:53.612Z,20.18
2022-07-30T07:41:20.284Z,20.16
2022-07-30T07:43:47.014Z,20.00
2022-07-30T07:46:16.490Z,19.95
2022-07-30T07:49:00.167Z,20.12
2022-07-30T07:51:47.724Z,20.09
2022-07-30T07:54:21.648Z,20.22
2022-07-30T07:56:52.888Z,20.49
2022-07-30T07:59:20.278Z,20.69
2022-07-30T08:01:47.326Z,20.71
2022-07-30T08:04:17.589Z,20.69
2022-07-30T08:06:44.383Z,20.79
2022-07-30T08:09:11.390Z,20.85
2022-07-30T08:11:38.144Z,21.02
2022-07-30T08:14:04.867Z,20.74
2022-07-30T08:16:31.633Z,20.43
2022-07-30T08:18:58.458Z,20.34
2022-07-30T08:21:25.974Z,20.26
2022-07-30T08:23:52.817Z,20.33
2022-07-30T08:26:19.597Z,20.58
2022-07-30T08:28:46.389Z,20.74
2022-07-30T08:31:13.614Z,20.55
2022-07-30T08:33:40.311Z,20.51
2022-07-30T08:36:09.530Z,20.36
2022-07-30T08:38:39.024Z,20.63
2022-07-30T08:41:05.787Z,20.74
2022-07-30T08:43:35.262Z,20.96
2022-07-30T08:46:06.019Z,21.00
2022-07-30T08:48:34.690Z,21.16
2022-07-30T08:51:02.310Z,21.13
2022-07-30T08:53:33.038Z,20.80
2022-07-30T08:56:00.812Z,20.59
2022-07-30T08:58:35.023Z,20.48
2022-07-30T09:01:03.668Z,20.36
2022-07-30T09:03:30.549Z,20.24
2022-07-30T09:05:57.542Z,20.21
2022-07-30T09:08:24.493Z,20.13
2022-07-30T09:10:53.095Z,20.07
2022-07-30T09:13:29.432Z,20.13
2022-07-30T09:15:57.631Z,20.16
2022-07-30T09:18:38.606Z,20.28
2022-07-30T09:21:24.454Z,20.35
2022-07-30T09:24:00.869Z,20.42
2022-07-30T09:26:29.488Z,20.40
2022-07-30T09:29:24.708Z,20.43
2022-07-30T09:32:17.349Z,20.47
2022-07-30T09:34:43.948Z,20.47
2022-07-30T09:37:12.655Z,20.77
2022-07-30T09:39:42.880Z,20.82
2022-07-30T09:42:28.982Z,20.85
2022-07-30T09:45:11.861Z,20.82
2022-07-30T09:47:48.458Z,20.92
2022-07-30T09:50:29.910Z,20.94
2022-07-30T09:53:08.894Z,20.89
2022-07-30T09:55:41.413Z,21.01
2022-07-30T09:58:12.836Z,21.40
2022-07-30T10:00:45.312Z,21.90
2022-07-30T10:03:33.085Z,22.21
2022-07-30T10:06:03.709Z,22.32
2022-07-30T10:08:41.701Z,22.28
2022-07-30T10:11:22.728Z,22.41
2022-07-30T10:13:55.871Z,22.57
2022-07-30T10:16:27.651Z,22.93
2022-07-30T10:18:59.960Z,23.08
2022-07-30T10:21:27.944Z,23.23
2022-07-30T10:23:55.051Z,23.11
2022-07-30T10:26:22.683Z,22.99
2022-07-30T10:28:50.989Z,23.03
2022-07-30T10:31:48.259Z,23.24
2022-07-30T10:34:08.556Z,23.58
2022-07-30T10:37:04.643Z,23.76
2022-07-30T10:39:47.121Z,23.82
2022-07-30T10:42:56.435Z,24.04
2022-07-30T10:45:52.127Z,24.20
2022-07-30T10:48:20.133Z,23.99
2022-07-30T10:50:57.956Z,23.97
2022-07-30T10:53:39.654Z,23.77
2022-07-30T10:56:25.869Z,23.61
2022-07-30T10:59:08.781Z,23.18
2022-07-30T11:01:51.678Z,22.76
2022-07-30T11:04:25.805Z,22.42
2022-07-30T11:07:23.446Z,22.31
2022-07-30T11:10:05.199Z,22.24
2022-07-30T11:12:42.404Z,21.90
2022-07-30T11:15:18.542Z,21.72
2022-07-30T11:18:02.614Z,21.63
2022-07-30T11:20:32.231Z,21.61
2022-07-30T11:23:39.565Z,21.75
2022-07-30T11:26:07.656Z,21.97
2022-07-30T11:28:43.067Z,22.20
2022-07-30T11:31:54.713Z,22.79
2022-07-30T11:34:25.954Z,23.27
2022-07-30T11:37:18.373Z,23.58
2022-07-30T11:39:55.540Z,23.44
2022-07-30T11:42:38.809Z,23.24
2022-07-30T11:45:18.182Z,22.92
2022-07-30T11:47:50.096Z,22.73
2022-07-30T11:50:23.862Z,22.61
2022-07-30T11:52:58.024Z,22.48
2022-07-30T11:55:32.709Z,22.47
2022-07-30T11:58:03.030Z,22.45
2022-07-30T12:00:42.723Z,22.58
2022-07-30T12:03:18.524Z,22.75
2022-07-30T12:05:51.154Z,22.89
2022-07-30T12:08:33.420Z,23.12
2022-07-30T12:11:03.466Z,23.29
2022-07-30T12:13:44.510Z,23.52
2022-07-30T12:16:18.498Z,23.71
2022-07-30T12:18:47.632Z,24.04
2022-07-30T12:21:17.101Z,24.34
2022-07-30T12:24:07.350Z,24.47
2022-07-30T12:26:35.314Z,24.45
2022-07-30T12:29:10.048Z,24.50
2022-07-30T12:31:38.349Z,24.72
2022-07-30T12:34:24.654Z,24.74
2022-07-30T12:36:51.826Z,24.93
2022-07-30T12:39:27.042Z,25.15
2022-07-30T12:41:58.356Z,25.29
2022-07-30T12:44:46.477Z,25.19
2022-07-30T12:47:26.132Z,25.60
2022-07-30T12:49:56.125Z,25.93
2022-07-30T12:52:35.545Z,25.82
2022-07-30T12:55:12.906Z,25.42
2022-07-30T12:57:57.382Z,25.63
2022-07-30T13:00:54.877Z,25.76
2022-07-30T13:03:24.306Z,25.48
2022-07-30T13:05:55.338Z,25.15
2022-07-30T13:08:59.352Z,25.17
2022-07-30T13:11:38.928Z,25.46
2022-07-30T13:14:06.172Z,25.46
2022-07-30T13:16:34.911Z,25.49
2022-07-30T13:19:04.385Z,25.45
2022-07-30T13:21:31.258Z,25.23
2022-07-30T13:23:58.029Z,25.15
2022-07-30T13:26:24.773Z,24.87
2022-07-30T13:28:51.688Z,24.58
2022-07-30T13:31:18.516Z,24.37
2022-07-30T13:33:45.246Z,24.26
2022-07-30T13:36:12.370Z,24.17
2022-07-30T13:38:38.973Z,24.26
2022-07-30T13:41:06.035Z,24.39
2022-07-30T13:43:33.684Z,24.59
2022-07-30T13:46:03.082Z,24.83
2022-07-30T13:48:30.174Z,25.23
2022-07-30T13:50:57.096Z,25.31
2022-07-30T13:53:24.105Z,25.12
2022-07-30T13:55:50.897Z,25.02
2022-07-30T13:58:18.818Z,24.70
2022-07-30T14:00:47.670Z,24.83
2022-07-30T14:03:15.729Z,24.71
2022-07-30T14:05:42.647Z,24.61
2022-07-30T14:08:12.102Z,24.56
2022-07-30T14:10:40.320Z,24.39
2022-07-30T14:13:10.401Z,24.39
2022-07-30T14:15:42.685Z,24.38
2022-07-30T14:18:09.442Z,24.30
2022-07-30T14:20:36.454Z,24.37
2022-07-30T14:23:03.237Z,24.53
2022-07-30T14:25:30.256Z,24.68
2022-07-30T14:27:56.948Z,24.86
2022-07-30T14:30:24.698Z,24.89
2022-07-30T14:32:57.384Z,24.91
2022-07-30T14:35:26.642Z,25.38
2022-07-30T14:37:53.586Z,25.50
2022-07-30T14:40:20.183Z,25.42
2022-07-30T14:42:48.197Z,25.49
2022-07-30T14:45:15.016Z,26.44
2022-07-30T14:47:41.804Z,27.10
2022-07-30T14:50:09.740Z,27.05
2022-07-30T14:52:38.705Z,26.90
2022-07-30T14:55:08.738Z,26.36
2022-07-30T14:57:36.326Z,25.62
2022-07-30T15:00:07.461Z,25.21
2022-07-30T15:02:34.790Z,25.01
2022-07-30T15:05:02.063Z,24.59
2022-07-30T15:07:29.435Z,24.14
2022-07-30T15:09:59.124Z,24.07
2022-07-30T15:12:27.174Z,23.98
2022-07-30T15:14:54.215Z,23.69
2022-07-30T15:17:20.991Z,23.66
2022-07-30T15:19:51.245Z,23.60
2022-07-30T15:22:19.746Z,23.37
2022-07-30T15:24:47.180Z,23.23
2022-07-30T15:27:13.992Z,23.02
2022-07-30T15:29:40.939Z,23.05
2022-07-30T15:32:07.763Z,23.07
2022-07-30T15:34:34.973Z,23.09
2022-07-30T15:37:03.356Z,23.15
2022-07-30T15:39:32.791Z,23.10
2022-07-30T15:42:03.048Z,22.93
2022-07-30T15:44:30.611Z,22.86
2022-07-30T15:46:58.159Z,22.75
2022-07-30T15:49:25.042Z,22.70
2022-07-30T15:51:51.924Z,22.92
2022-07-30T15:54:24.924Z,23.22
2022-07-30T15:56:53.978Z,23.54
2022-07-30T15:59:22.081Z,23.64
2022-07-30T16:01:49.242Z,23.71
2022-07-30T16:04:19.499Z,23.88
2022-07-30T16:06:48.363Z,24.20
2022-07-30T16:09:16.664Z,24.43
2022-07-30T16:11:43.562Z,24.69
2022-07-30T16:14:10.723Z,24.17
2022-07-30T16:16:38.156Z,23.88
2022-07-30T16:19:04.997Z,23.57
2022-07-30T16:21:31.688Z,23.40
2022-07-30T16:24:01.568Z,23.21
2022-07-30T16:26:28.636Z,22.91
2022-07-30T16:28:55.476Z,22.86
2022-07-30T16:31:22.692Z,22.79
2022-07-30T16:33:50.455Z,22.82
2022-07-30T16:36:17.206Z,22.74
2022-07-30T16:38:44.205Z,22.61
2022-07-30T16:41:13.350Z,22.70
2022-07-30T16:43:41.046Z,22.63
2022-07-30T16:46:07.925Z,22.47
2022-07-30T16:48:35.252Z,22.63
2022-07-30T16:51:02.481Z,23.22
2022-07-30T16:53:29.837Z,23.58
2022-07-30T16:55:58.323Z,23.76
2022-07-30T16:58:30.820Z,23.97
2022-07-30T17:00:58.308Z,23.85
2022-07-30T17:03:25.488Z,23.75
2022-07-30T17:05:52.775Z,23.65
2022-07-30T17:08:24.977Z,23.53
2022-07-30T17:10:53.517Z,23.36
2022-07-30T17:13:21.016Z,23.30
2022-07-30T17:15:48.029Z,23.38
2022-07-30T17:18:16.145Z,23.52
2022-07-30T17:20:44.369Z,23.51
2022-07-30T17:23:11.900Z,23.35
2022-07-30T17:25:38.871Z,23.03
2022-07-30T17:28:05.683Z,23.16
2022-07-30T17:30:32.618Z,23.40
2022-07-30T17:32:59.360Z,23.50
2022-07-30T17:35:26.362Z,23.31
2022-07-30T17:37:53.621Z,23.11
2022-07-30T17:40:30.588Z,23.01
2022-07-30T17:43:06.010Z,22.74
2022-07-30T17:45:35.280Z,22.78
2022-07-30T17:48:03.694Z,22.80
2022-07-30T17:50:33.063Z,22.77
2022-07-30T17:53:03.543Z,22.72
2022-07-30T17:55:34.757Z,22.64
2022-07-30T17:58:03.719Z,22.62
2022-07-30T18:00:31.155Z,22.45
2022-07-30T18:02:57.956Z,22.38
2022-07-30T18:05:24.730Z,22.16
2022-07-30T18:07:51.936Z,22.10
2022-07-30T18:10:19.342Z,22.09
2022-07-30T18:12:48.868Z,21.90
2022-07-30T18:15:17.731Z,21.80
2022-07-30T18:17:44.990Z,21.82
2022-07-30T18:20:12.088Z,21.69
2022-07-30T18:22:38.937Z,21.66
2022-07-30T18:25:17.994Z,21.63
2022-07-30T18:27:47.390Z,21.65
2022-07-30T18:30:15.265Z,21.54
2022-07-30T18:32:42.097Z,21.50
2022-07-30T18:35:14.118Z,21.41
2022-07-30T18:37:45.231Z,21.37
2022-07-30T18:40:15.123Z,21.39
2022-07-30T18:42:42.534Z,21.34
2022-07-30T18:45:13.662Z,21.25
2022-07-30T18:47:45.120Z,21.22
2022-07-30T18:50:14.487Z,21.16
2022-07-30T18:52:41.623Z,20.99
2022-07-30T18:55:11.363Z,20.91
2022-07-30T18:57:41.150Z,20.85
2022-07-30T19:00:34.307Z,20.81
2022-07-30T19:03:00.012Z,20.66
2022-07-30T19:05:27.273Z,20.45
2022-07-30T19:07:57.634Z,20.38
2022-07-30T19:10:27.593Z,20.30
2022-07-30T19:12:55.496Z,20.29
2022-07-30T19:15:22.221Z,20.28
2022-07-30T19:17:50.158Z,20.27
2022-07-30T19:20:19.291Z,20.30
2022-07-30T19:22:46.969Z,20.32
2022-07-30T19:25:15.019Z,20.36
2022-07-30T19:27:41.768Z,20.38
2022-07-30T19:30:09.193Z,20.34
2022-07-30T19:32:35.942Z,20.33
2022-07-30T19:35:03.114Z,20.32
2022-07-30T19:37:29.832Z,20.30
2022-07-30T19:40:06.319Z,20.30
2022-07-30T19:42:34.030Z,20.28
2022-07-30T19:45:04.120Z,20.22
2022-07-30T19:47:39.721Z,20.14
2022-07-30T19:50:11.230Z,20.17
2022-07-30T19:52:39.824Z,20.17
2022-07-30T19:55:17.255Z,20.13
2022-07-30T19:57:55.209Z,20.12
2022-07-30T20:00:24.841Z,20.15
2022-07-30T20:02:52.859Z,20.17
2022-07-30T20:05:20.153Z,20.15
2022-07-30T20:07:51.737Z,20.16
2022-07-30T20:10:19.574Z,20.17
2022-07-30T20:12:49.484Z,20.15
2022-07-30T20:15:17.604Z,20.12
2022-07-30T20:17:46.577Z,20.01
2022-07-30T20:20:14.937Z,19.88
2022-07-30T20:22:41.705Z,19.71
2022-07-30T20:25:10.658Z,19.61
2022-07-30T20:27:40.231Z,19.68
2022-07-30T20:30:10.318Z,19.76
2022-07-30T20:32:38.199Z,19.63
2022-07-30T20:35:07.811Z,19.67
2022-07-30T20:37:40.286Z,19.59
2022-07-30T20:40:22.054Z,19.55
2022-07-30T20:42:50.212Z,19.42
2022-07-30T20:45:16.972Z,19.38
2022-07-30T20:47:52.759Z,19.39
2022-07-30T20:50:19.653Z,19.34
2022-07-30T20:52:57.832Z,19.28
2022-07-30T20:55:24.588Z,18.92
2022-07-30T20:58:00.242Z,18.72
2022-07-30T21:00:33.288Z,18.57
2022-07-30T21:03:03.218Z,18.41
2022-07-30T21:05:31.361Z,18.40
2022-07-30T21:07:58.574Z,18.42
2022-07-30T21:10:25.501Z,18.41
2022-07-30T21:12:57.162Z,18.57
2022-07-30T21:15:33.048Z,18.60
2022-07-30T21:18:01.747Z,18.67
2022-07-30T21:20:31.152Z,18.58
2022-07-30T21:23:12.483Z,18.66
2022-07-30T21:26:01.092Z,18.66
2022-07-30T21:28:28.063Z,18.59
2022-07-30T21:30:57.235Z,18.55
2022-07-30T21:33:30.969Z,18.59
2022-07-30T21:35:59.401Z,18.64
2022-07-30T21:38:30.567Z,18.70
2022-07-30T21:40:58.505Z,18.59
2022-07-30T21:43:30.064Z,18.36
2022-07-30T21:45:58.676Z,18.08
2022-07-30T21:48:28.767Z,17.97
2022-07-30T21:50:55.964Z,17.85
2022-07-30T21:53:26.455Z,17.79
2022-07-30T21:56:11.106Z,17.70
2022-07-30T21:58:38.820Z,17.77
2022-07-30T22:01:16.959Z,17.78
2022-07-30T22:04:04.806Z,17.91
2022-07-30T22:06:39.987Z,18.09
2022-07-30T22:09:19.698Z,18.21
2022-07-30T22:11:57.052Z,18.30
2022-07-30T22:14:28.970Z,18.36
2022-07-30T22:16:57.081Z,18.34
2022-07-30T22:19:26.005Z,18.36
2022-07-30T22:21:53.311Z,18.37
2022-07-30T22:24:29.806Z,18.37
2022-07-30T22:27:01.388Z,18.25
2022-07-30T22:29:34.489Z,18.25
2022-07-30T22:32:04.040Z,18.22
2022-07-30T22:34:32.723Z,18.27
2022-07-30T22:36:59.487Z,18.23
2022-07-30T22:39:32.233Z,18.24
2022-07-30T22:42:13.087Z,18.27
2022-07-30T22:44:39.752Z,18.07
2022-07-30T22:47:21.358Z,17.96
2022-07-30T22:50:00.238Z,17.96
2022-07-30T22:52:29.615Z,17.97
2022-07-30T22:55:03.372Z,17.99
2022-07-30T22:57:38.142Z,18.00
2022-07-30T23:00:12.419Z,17.84
2022-07-30T23:02:42.370Z,17.74
2022-07-30T23:05:10.813Z,17.72
2022-07-30T23:07:39.941Z,17.49
2022-07-30T23:10:16.926Z,17.52
2022-07-30T23:12:51.716Z,17.61
2022-07-30T23:15:20.306Z,17.72
2022-07-30T23:17:47.618Z,17.73
2022-07-30T23:20:20.439Z,17.76
2022-07-30T23:22:48.018Z,17.79
2022-07-30T23:25:15.334Z,17.80
2022-07-30T23:27:43.261Z,17.74
2022-07-30T23:30:11.535Z,17.74
2022-07-30T23:32:39.975Z,17.77
2022-07-30T23:35:08.899Z,17.75
2022-07-30T23:37:48.987Z,17.67
2022-07-30T23:40:18.498Z,17.48
2022-07-30T23:42:45.957Z,17.31
2022-07-30T23:45:12.979Z,17.21
2022-07-30T23:48:00.763Z,16.96
2022-07-30T23:50:27.302Z,16.83
2022-07-30T23:52:54.246Z,16.87
2022-07-30T23:55:21.186Z,16.76
2022-07-30T23:57:48.293Z,16.95
